Time;durP1;ratioP1;P1;durP2;ratioP2;P2;SDS_P1;SDS_P2;PMS_P1;PMS_P2;Temp;Humidity;BMP_temperature;BMP_pressure;BME280_temperature;BME280_humidity;BME280_pressure;Samples;Min_cycle;Max_cycle;Signal;HPM_P1;HPM_P2
2022/12/17 13:06:14;;;;;;;17.93;12.47;;;;;;;;;;4924172;28;20891;-62
2022/12/17 13:08:42;;;;;;;16.83;12.50;;;;;;;;;;4930447;28;20296;-62
2022/12/17 13:11:11;;;;;;;21.53;14.43;;;;;;;;;;4933458;28;20667;-62
2022/12/17 13:13:54;;;;;;;19.73;13.53;;;;;;;;;;4932294;28;20215;-61
2022/12/17 13:16:32;;;;;;;20.37;12.57;;;;;;;;;;4932865;28;20633;-61
2022/12/17 13:19:04;;;;;;;19.87;13.70;;;;;;;;;;4924358;28;20697;-62
2022/12/17 13:21:32;;;;;;;18.80;12.23;;;;;;;;;;4922207;28;20339;-63
2022/12/17 13:24:09;;;;;;;20.23;12.20;;;;;;;;;;4924596;28;21122;-62
2022/12/17 13:26:40;;;;;;;18.87;12.27;;;;;;;;;;4925664;28;20225;-62
2022/12/17 13:29:19;;;;;;;19.80;13.67;;;;;;;;;;4914288;28;20283;-62
2022/12/17 13:31:53;;;;;;;20.27;13.63;;;;;;;;;;4929433;28;20246;-63
2022/12/17 13:34:50;;;;;;;18.43;12.03;;;;;;;;;;4932980;28;20209;-60
2022/12/17 13:37:20;;;;;;;16.73;11.90;;;;;;;;;;4921254;28;20229;-62
2022/12/17 13:40:05;;;;;;;22.83;13.27;;;;;;;;;;4941765;28;20304;-61
2022/12/17 13:42:35;;;;;;;16.23;12.27;;;;;;;;;;4927465;28;20928;-64
2022/12/17 13:45:02;;;;;;;13.63;10.27;;;;;;;;;;4924381;28;21153;-62
2022/12/17 13:47:36;;;;;;;15.30;10.43;;;;;;;;;;4930315;28;20743;-63
2022/12/17 13:50:17;;;;;;;16.73;11.37;;;;;;;;;;4916932;28;20213;-63
2022/12/17 13:53:09;;;;;;;17.93;11.13;;;;;;;;;;4926417;28;20336;-62
2022/12/17 13:55:38;;;;;;;16.03;11.77;;;;;;;;;;4930603;28;20298;-61
2022/12/17 13:58:05;;;;;;;16.50;11.57;;;;;;;;;;4938811;28;20283;-61
2022/12/17 14:00:33;;;;;;;16.97;11.87;;;;;;;;;;4919060;28;20209;-63
2022/12/17 14:03:09;;;;;;;16.97;11.77;;;;;;;;;;4934778;28;20306;-63
2022/12/17 14:05:40;;;;;;;17.40;12.13;;;;;;;;;;4927369;28;20318;-61
2022/12/17 14:08:08;;;;;;;16.87;11.00;;;;;;;;;;4931124;28;20389;-63
2022/12/17 14:10:35;;;;;;;13.37;9.87;;;;;;;;;;4931610;28;20247;-63
2022/12/17 14:13:07;;;;;;;11.43;7.87;;;;;;;;;;4928071;28;20198;-62
2022/12/17 14:15:34;;;;;;;9.70;7.87;;;;;;;;;;4915030;28;20217;-63
2022/12/17 14:18:02;;;;;;;10.80;8.20;;;;;;;;;;4935675;28;20296;-62
2022/12/17 14:20:29;;;;;;;10.40;8.10;;;;;;;;;;4928563;28;20336;-63
2022/12/17 14:23:02;;;;;;;10.97;8.57;;;;;;;;;;4922899;28;20204;-63
2022/12/17 14:25:35;;;;;;;9.83;8.03;;;;;;;;;;4924352;28;20210;-61
2022/12/17 14:28:02;;;;;;;11.57;8.60;;;;;;;;;;4907431;28;20212;-61
2022/12/17 14:30:40;;;;;;;14.88;11.68;;;;;;;;;;4908844;28;20465;-61
2022/12/17 14:33:27;;;;;;;11.20;9.13;;;;;;;;;;4916226;28;20224;-61
2022/12/17 14:36:14;;;;;;;13.53;9.43;;;;;;;;;;4917783;28;20344;-61
2022/12/17 14:39:00;;;;;;;14.03;10.90;;;;;;;;;;4908789;28;20216;-61
2022/12/17 14:44:34;;;;;;;15.37;11.67;;;;;;;;;;4922942;28;20255;-61
2022/12/17 14:47:08;;;;;;;29.50;17.87;;;;;;;;;;4919023;28;20209;-61
2022/12/17 14:49:37;;;;;;;30.47;19.47;;;;;;;;;;4921065;28;20212;-63
2022/12/17 14:52:12;;;;;;;30.63;19.47;;;;;;;;;;4921797;28;20254;-63
2022/12/17 14:54:45;;;;;;;26.17;16.30;;;;;;;;;;4927496;28;20278;-61
2022/12/17 14:57:22;;;;;;;19.43;13.77;;;;;;;;;;4926692;28;20746;-63
2022/12/17 14:59:51;;;;;;;21.53;15.20;;;;;;;;;;4925023;28;20294;-61
2022/12/17 15:02:26;;;;;;;24.27;16.00;;;;;;;;;;4923812;28;20262;-61
2022/12/17 15:05:00;;;;;;;27.30;17.20;;;;;;;;;;4921087;28;20348;-63
2022/12/17 15:07:28;;;;;;;25.13;17.60;;;;;;;;;;4923539;28;20233;-62
2022/12/17 15:09:59;;;;;;;24.10;17.17;;;;;;;;;;4928206;28;20593;-62
2022/12/17 15:12:27;;;;;;;29.97;19.33;;;;;;;;;;4925773;28;20324;-62
2022/12/17 15:14:54;;;;;;;38.87;22.83;;;;;;;;;;4939878;28;20217;-62
2022/12/17 15:17:22;;;;;;;39.23;22.93;;;;;;;;;;4922078;28;20226;-63
2022/12/17 15:19:49;;;;;;;34.93;21.87;;;;;;;;;;4928982;28;20285;-63
2022/12/17 15:22:22;;;;;;;35.70;21.60;;;;;;;;;;4934126;28;20610;-64
2022/12/17 15:24:50;;;;;;;39.60;24.13;;;;;;;;;;4930067;28;20669;-62
2022/12/17 15:27:17;;;;;;;35.13;21.53;;;;;;;;;;4927424;28;20322;-63
2022/12/17 15:29:45;;;;;;;30.47;19.90;;;;;;;;;;4925583;28;20606;-62
2022/12/17 15:32:19;;;;;;;32.47;22.57;;;;;;;;;;4921190;28;20312;-62
2022/12/17 15:34:46;;;;;;;31.77;21.43;;;;;;;;;;4922915;28;20216;-61
2022/12/17 15:37:14;;;;;;;28.30;18.87;;;;;;;;;;4924140;28;20238;-61
2022/12/17 15:39:48;;;;;;;29.10;18.87;;;;;;;;;;4908875;28;20240;-60
2022/12/17 15:45:02;;;;;;;36.80;23.23;;;;;;;;;;4926398;28;20668;-63
2022/12/17 15:47:29;;;;;;;31.90;20.60;;;;;;;;;;4922016;28;20275;-60
2022/12/17 15:49:56;;;;;;;32.00;21.73;;;;;;;;;;4925327;28;20280;-60
2022/12/17 15:52:24;;;;;;;35.77;22.57;;;;;;;;;;4935988;28;20241;-61
2022/12/17 15:54:51;;;;;;;34.87;23.13;;;;;;;;;;4930805;28;20351;-61
2022/12/17 15:57:19;;;;;;;32.43;23.07;;;;;;;;;;4925236;28;20235;-60
2022/12/17 15:59:46;;;;;;;37.00;23.97;;;;;;;;;;4915074;28;21483;-60
2022/12/17 16:02:13;;;;;;;38.27;24.13;;;;;;;;;;4924670;28;20243;-61
2022/12/17 16:04:41;;;;;;;39.50;25.87;;;;;;;;;;4920611;28;20217;-61
2022/12/17 16:07:09;;;;;;;42.07;25.80;;;;;;;;;;4925828;28;20656;-61
2022/12/17 16:09:36;;;;;;;41.00;24.80;;;;;;;;;;4931275;28;20252;-60
2022/12/17 16:12:04;;;;;;;32.83;21.57;;;;;;;;;;4935236;28;20232;-61
2022/12/17 16:14:31;;;;;;;32.10;21.93;;;;;;;;;;4962010;23;20897;-62
2022/12/17 16:16:59;;;;;;;36.67;22.40;;;;;;;;;;4952194;28;20284;-62
2022/12/17 16:19:26;;;;;;;40.47;24.67;;;;;;;;;;4949063;28;20270;-61
2022/12/17 16:21:54;;;;;;;37.73;23.57;;;;;;;;;;4948477;28;20227;-61
2022/12/17 16:24:21;;;;;;;37.77;23.13;;;;;;;;;;4947287;28;22296;-64
2022/12/17 16:26:48;;;;;;;38.67;23.73;;;;;;;;;;4939685;28;20215;-61
2022/12/17 16:29:16;;;;;;;42.83;25.20;;;;;;;;;;4942200;28;21021;-62
2022/12/17 16:31:45;;;;;;;36.43;24.23;;;;;;;;;;4967837;28;20235;-62
2022/12/17 16:34:12;;;;;;;40.17;24.70;;;;;;;;;;4945477;28;20215;-62
2022/12/17 16:36:40;;;;;;;36.80;23.90;;;;;;;;;;4950186;28;20629;-62
2022/12/17 16:39:07;;;;;;;37.47;23.27;;;;;;;;;;4951781;28;20222;-61
2022/12/17 16:41:35;;;;;;;34.93;21.73;;;;;;;;;;4945584;28;20247;-61
2022/12/17 16:44:02;;;;;;;34.23;21.03;;;;;;;;;;4938877;28;20235;-61
2022/12/17 16:46:32;;;;;;;35.67;22.63;;;;;;;;;;4935747;28;20217;-62
2022/12/17 16:49:11;;;;;;;41.23;23.80;;;;;;;;;;4966892;28;20233;-61
2022/12/17 16:51:39;;;;;;;37.43;22.10;;;;;;;;;;4951422;28;20243;-62
2022/12/17 16:54:08;;;;;;;34.53;21.83;;;;;;;;;;4950866;28;20304;-63
2022/12/17 16:56:36;;;;;;;37.53;21.73;;;;;;;;;;4950451;28;20281;-62
2022/12/17 16:59:07;;;;;;;35.93;21.27;;;;;;;;;;4951301;28;20215;-62
2022/12/17 17:01:35;;;;;;;37.47;21.57;;;;;;;;;;4935529;28;20229;-62
2022/12/17 17:04:03;;;;;;;40.13;22.87;;;;;;;;;;4945067;28;20664;-62
2022/12/17 17:06:30;;;;;;;39.50;22.47;;;;;;;;;;4949838;28;20206;-61
2022/12/17 17:09:02;;;;;;;39.13;22.47;;;;;;;;;;4932167;28;20246;-62
2022/12/17 17:11:30;;;;;;;36.10;21.43;;;;;;;;;;4939742;28;20257;-61
2022/12/17 17:13:57;;;;;;;33.20;20.43;;;;;;;;;;4938107;28;20281;-61
2022/12/17 17:16:25;;;;;;;34.27;20.00;;;;;;;;;;4944086;28;20241;-61
2022/12/17 17:18:52;;;;;;;34.43;19.83;;;;;;;;;;4940343;28;20215;-61
2022/12/17 17:21:22;;;;;;;36.30;21.17;;;;;;;;;;4935700;28;20701;-61
2022/12/17 17:23:50;;;;;;;43.40;23.63;;;;;;;;;;4929611;28;20660;-61
2022/12/17 17:26:19;;;;;;;37.50;22.37;;;;;;;;;;4925437;28;20335;-61
2022/12/17 17:28:47;;;;;;;38.77;23.80;;;;;;;;;;4936407;28;20910;-60
2022/12/17 17:31:16;;;;;;;36.77;22.17;;;;;;;;;;4941752;28;20244;-60
2022/12/17 17:33:45;;;;;;;36.27;22.90;;;;;;;;;;4938994;28;20224;-61
2022/12/17 17:36:17;;;;;;;34.87;22.20;;;;;;;;;;4937453;28;20656;-60
2022/12/17 17:38:46;;;;;;;45.47;27.57;;;;;;;;;;4937503;28;20300;-61
2022/12/17 17:41:14;;;;;;;62.50;34.77;;;;;;;;;;4939779;28;20725;-61
2022/12/17 17:43:42;;;;;;;63.07;33.50;;;;;;;;;;4938830;28;20418;-61
2022/12/17 17:46:13;;;;;;;49.93;29.47;;;;;;;;;;4945178;28;20283;-62
2022/12/17 17:48:42;;;;;;;48.47;29.03;;;;;;;;;;4927761;28;20213;-62
2022/12/17 17:51:17;;;;;;;49.53;27.23;;;;;;;;;;4921015;28;20231;-61
2022/12/17 17:53:44;;;;;;;45.27;26.37;;;;;;;;;;4932399;28;20265;-61
2022/12/17 17:56:16;;;;;;;47.50;27.30;;;;;;;;;;4961707;28;20296;-62
2022/12/17 17:58:48;;;;;;;44.43;25.83;;;;;;;;;;4966631;28;20260;-62
2022/12/17 18:01:21;;;;;;;44.83;25.40;;;;;;;;;;4930288;28;20225;-61
2022/12/17 18:03:49;;;;;;;43.80;26.00;;;;;;;;;;4931204;28;20207;-63
2022/12/17 18:06:16;;;;;;;41.80;25.27;;;;;;;;;;4945087;28;20392;-61
2022/12/17 18:08:44;;;;;;;46.00;25.53;;;;;;;;;;4935759;28;20216;-61
2022/12/17 18:11:13;;;;;;;49.03;26.27;;;;;;;;;;4937298;28;20248;-61
2022/12/17 18:13:53;;;;;;;47.60;26.37;;;;;;;;;;4933657;28;20606;-61
2022/12/17 18:16:21;;;;;;;48.67;25.97;;;;;;;;;;4943428;28;20332;-60
2022/12/17 18:18:48;;;;;;;50.10;26.37;;;;;;;;;;4934849;28;20240;-60
2022/12/17 18:21:18;;;;;;;46.30;26.33;;;;;;;;;;4941333;28;20597;-60
2022/12/17 18:23:46;;;;;;;43.80;25.43;;;;;;;;;;4934729;28;20329;-62
2022/12/17 18:26:18;;;;;;;39.90;24.53;;;;;;;;;;4957152;28;20863;-61
2022/12/17 18:28:46;;;;;;;36.33;22.17;;;;;;;;;;4944598;28;22157;-61
2022/12/17 18:31:21;;;;;;;40.77;23.10;;;;;;;;;;4929448;28;20320;-61
2022/12/17 18:33:50;;;;;;;37.20;21.67;;;;;;;;;;4937772;28;20210;-61
2022/12/17 18:36:19;;;;;;;39.70;23.03;;;;;;;;;;4947003;28;20218;-62
2022/12/17 18:38:47;;;;;;;45.27;25.47;;;;;;;;;;4934578;28;20225;-61
2022/12/17 18:44:05;;;;;;;57.23;28.90;;;;;;;;;;4950073;28;20212;-62
2022/12/17 18:46:35;;;;;;;58.73;30.83;;;;;;;;;;4944127;28;20225;-62
2022/12/17 18:49:04;;;;;;;50.50;27.13;;;;;;;;;;4963038;28;20214;-62
2022/12/17 18:51:31;;;;;;;50.97;28.17;;;;;;;;;;4939956;28;20268;-63
2022/12/17 18:53:59;;;;;;;61.17;31.57;;;;;;;;;;4949606;28;20299;-61
2022/12/17 18:56:27;;;;;;;53.23;27.83;;;;;;;;;;4938514;28;20336;-60
2022/12/17 18:59:17;;;;;;;58.30;31.33;;;;;;;;;;4945528;28;20574;-61
2022/12/17 19:01:45;;;;;;;59.67;33.40;;;;;;;;;;4938941;28;20237;-60
2022/12/17 19:04:15;;;;;;;59.37;30.43;;;;;;;;;;4928670;28;20206;-63
2022/12/17 19:06:43;;;;;;;50.80;27.90;;;;;;;;;;4931509;28;20239;-61
2022/12/17 19:09:19;;;;;;;40.23;23.20;;;;;;;;;;4933308;28;20449;-63
2022/12/17 19:11:47;;;;;;;50.10;26.70;;;;;;;;;;4929458;28;20706;-62
2022/12/17 19:14:16;;;;;;;47.57;27.47;;;;;;;;;;4952274;28;20217;-63
2022/12/17 19:16:44;;;;;;;64.07;32.77;;;;;;;;;;4924073;28;20387;-61
2022/12/17 19:19:12;;;;;;;59.70;32.30;;;;;;;;;;4923200;28;21424;-61
2022/12/17 19:21:40;;;;;;;64.40;33.57;;;;;;;;;;4923664;28;20383;-62
2022/12/17 19:24:10;;;;;;;71.53;38.60;;;;;;;;;;4930909;28;20209;-60
2022/12/17 19:26:39;;;;;;;60.63;32.70;;;;;;;;;;4965777;28;20279;-61
2022/12/17 19:29:09;;;;;;;67.00;32.80;;;;;;;;;;4946078;28;20705;-62
2022/12/17 19:31:36;;;;;;;69.60;34.00;;;;;;;;;;4924667;28;20247;-63
2022/12/17 19:34:06;;;;;;;60.13;32.00;;;;;;;;;;4953870;28;20205;-62
2022/12/17 19:36:34;;;;;;;45.33;26.77;;;;;;;;;;4937466;28;20205;-61
2022/12/17 19:39:04;;;;;;;45.37;24.23;;;;;;;;;;4940678;28;20225;-62
2022/12/17 19:41:31;;;;;;;43.27;22.60;;;;;;;;;;4932076;28;20351;-61
2022/12/17 19:44:06;;;;;;;37.50;22.97;;;;;;;;;;4924948;28;20329;-61
2022/12/17 19:46:34;;;;;;;44.57;22.60;;;;;;;;;;4949498;28;20695;-62
2022/12/17 19:49:02;;;;;;;46.47;25.60;;;;;;;;;;4933662;28;20291;-62
2022/12/17 19:51:30;;;;;;;39.97;22.03;;;;;;;;;;4921248;28;20723;-61
2022/12/17 19:53:58;;;;;;;39.40;22.37;;;;;;;;;;4928072;28;20229;-62
2022/12/17 19:56:34;;;;;;;43.30;21.83;;;;;;;;;;4933588;28;20706;-62
2022/12/17 19:59:05;;;;;;;39.07;22.13;;;;;;;;;;4947296;28;20344;-62
2022/12/17 20:01:35;;;;;;;45.57;26.40;;;;;;;;;;4944474;28;20233;-61
2022/12/17 20:04:03;;;;;;;44.97;25.80;;;;;;;;;;4955981;28;20220;-62
2022/12/17 20:06:32;;;;;;;47.03;26.60;;;;;;;;;;4942034;28;20256;-61
2022/12/17 20:09:02;;;;;;;49.77;26.37;;;;;;;;;;4930801;28;20619;-62
2022/12/17 20:11:31;;;;;;;47.67;26.60;;;;;;;;;;4951318;28;20720;-62
2022/12/17 20:14:08;;;;;;;43.40;23.77;;;;;;;;;;4944311;28;20688;-61
2022/12/17 20:16:36;;;;;;;38.77;20.97;;;;;;;;;;4944665;28;20327;-61
2022/12/17 20:19:06;;;;;;;38.33;21.17;;;;;;;;;;4947814;28;20228;-61
2022/12/17 20:21:34;;;;;;;33.90;21.37;;;;;;;;;;4944153;28;20229;-62
2022/12/17 20:24:03;;;;;;;40.97;21.33;;;;;;;;;;4967899;28;20228;-61
2022/12/17 20:26:31;;;;;;;40.00;22.83;;;;;;;;;;4948757;28;20233;-61
2022/12/17 20:28:58;;;;;;;53.37;27.50;;;;;;;;;;4942808;28;20217;-61
2022/12/17 20:31:26;;;;;;;55.77;28.77;;;;;;;;;;4939040;28;20260;-60
2022/12/17 20:33:54;;;;;;;46.93;27.20;;;;;;;;;;4947506;28;20263;-60
2022/12/17 20:36:22;;;;;;;53.67;27.67;;;;;;;;;;4948670;28;20228;-61
2022/12/17 20:38:50;;;;;;;44.43;24.20;;;;;;;;;;4953671;28;20224;-61
2022/12/17 20:41:20;;;;;;;45.17;24.70;;;;;;;;;;4945156;28;20762;-60
2022/12/17 20:43:49;;;;;;;45.63;24.83;;;;;;;;;;4965109;28;20867;-60
2022/12/17 20:46:18;;;;;;;46.30;24.27;;;;;;;;;;4947171;28;20296;-62
2022/12/17 20:48:46;;;;;;;42.83;23.17;;;;;;;;;;4965439;28;20593;-63
2022/12/17 20:51:16;;;;;;;40.20;22.00;;;;;;;;;;4957390;28;20232;-63
2022/12/17 20:53:44;;;;;;;36.50;20.83;;;;;;;;;;4957224;28;20267;-61
2022/12/17 20:56:14;;;;;;;42.30;22.07;;;;;;;;;;4938564;28;20678;-62
2022/12/17 20:58:42;;;;;;;38.20;21.77;;;;;;;;;;4966766;28;20236;-63
2022/12/17 21:01:14;;;;;;;48.30;25.33;;;;;;;;;;4955081;28;20247;-62
2022/12/17 21:03:42;;;;;;;43.57;24.00;;;;;;;;;;4951567;28;20778;-60
2022/12/17 21:06:17;;;;;;;49.30;25.47;;;;;;;;;;4949173;28;20228;-61
2022/12/17 21:08:47;;;;;;;55.53;28.53;;;;;;;;;;4947229;28;20236;-61
2022/12/17 21:11:21;;;;;;;53.03;27.20;;;;;;;;;;4942681;28;20240;-61
2022/12/17 21:13:49;;;;;;;51.43;26.47;;;;;;;;;;4945694;28;20688;-62
2022/12/17 21:16:18;;;;;;;45.30;25.63;;;;;;;;;;4949391;28;22843;-62
2022/12/17 21:18:46;;;;;;;48.57;25.33;;;;;;;;;;4964763;28;20321;-60
2022/12/17 21:21:16;;;;;;;47.13;24.13;;;;;;;;;;4966329;28;20302;-61
2022/12/17 21:23:44;;;;;;;44.37;24.83;;;;;;;;;;4944877;28;20220;-61
2022/12/17 21:26:15;;;;;;;46.13;25.03;;;;;;;;;;4951304;28;20209;-60
2022/12/17 21:28:46;;;;;;;68.90;32.50;;;;;;;;;;4941911;28;20205;-61
2022/12/17 21:31:18;;;;;;;50.53;24.47;;;;;;;;;;4946579;28;20292;-62
2022/12/17 21:33:46;;;;;;;47.07;24.30;;;;;;;;;;4956153;28;20220;-60
2022/12/17 21:36:14;;;;;;;51.27;27.33;;;;;;;;;;4942982;28;20346;-60
2022/12/17 21:38:43;;;;;;;77.27;36.50;;;;;;;;;;4947498;28;20221;-61
2022/12/17 21:41:12;;;;;;;57.43;28.23;;;;;;;;;;4955228;28;20239;-64
2022/12/17 21:43:40;;;;;;;53.60;27.67;;;;;;;;;;4967083;28;20205;-60
2022/12/17 21:46:08;;;;;;;49.83;26.93;;;;;;;;;;4934589;28;20224;-64
2022/12/17 21:48:40;;;;;;;44.60;25.50;;;;;;;;;;4970924;28;20837;-63
2022/12/17 21:51:12;;;;;;;48.77;25.70;;;;;;;;;;4958192;28;20725;-60
2022/12/17 21:53:41;;;;;;;53.67;27.17;;;;;;;;;;4957434;28;20669;-62
2022/12/17 21:56:14;;;;;;;50.77;25.93;;;;;;;;;;4947520;28;20244;-61
2022/12/17 21:58:43;;;;;;;46.93;25.33;;;;;;;;;;4947300;28;20299;-63
2022/12/17 22:01:18;;;;;;;50.90;24.40;;;;;;;;;;4950250;28;20871;-62
2022/12/17 22:03:49;;;;;;;46.57;24.57;;;;;;;;;;4959293;28;20616;-62
2022/12/17 22:06:21;;;;;;;45.73;23.53;;;;;;;;;;4951766;28;20293;-63
2022/12/17 22:08:49;;;;;;;42.77;23.13;;;;;;;;;;4950683;28;20286;-62
2022/12/17 22:11:26;;;;;;;42.93;23.43;;;;;;;;;;4952164;28;20374;-63
2022/12/17 22:14:10;;;;;;;41.10;21.47;;;;;;;;;;4952199;28;20223;-63
2022/12/17 22:16:51;;;;;;;42.70;22.27;;;;;;;;;;4939631;28;20221;-63
2022/12/17 22:19:19;;;;;;;44.73;22.33;;;;;;;;;;4967868;28;20792;-63
2022/12/17 22:21:49;;;;;;;37.50;20.23;;;;;;;;;;4957634;28;20693;-61
2022/12/17 22:24:18;;;;;;;40.13;20.40;;;;;;;;;;4958381;28;20207;-62
2022/12/17 22:26:46;;;;;;;43.47;21.67;;;;;;;;;;4975953;28;20229;-62
2022/12/17 22:32:58;;;;;;;43.53;22.60;;;;;;;;;;4952885;28;20690;-62
2022/12/17 22:34:48;;;;;;;35.13;17.90;;;;;;;;;;4975501;28;20201;-63
2022/12/17 22:37:36;;;;;;;44.13;20.97;;;;;;;;;;4956260;28;21069;-61
2022/12/17 22:40:23;;;;;;;42.30;20.40;;;;;;;;;;4964113;28;20216;-62
2022/12/17 22:43:31;;;;;;;47.83;21.80;;;;;;;;;;4968158;28;20211;-63
2022/12/17 22:46:18;;;;;;;53.47;22.90;;;;;;;;;;4968824;28;20224;-63
2022/12/17 22:48:46;;;;;;;35.03;17.93;;;;;;;;;;4955824;28;20226;-63
2022/12/17 22:51:14;;;;;;;42.37;20.63;;;;;;;;;;4950360;28;20282;-63
2022/12/17 22:53:55;;;;;;;43.50;21.20;;;;;;;;;;4959106;28;20880;-61
2022/12/17 22:56:23;;;;;;;43.17;22.33;;;;;;;;;;4985878;28;20666;-63
2022/12/17 22:59:18;;;;;;;43.50;23.43;;;;;;;;;;4967627;28;20336;-61
2022/12/17 23:01:46;;;;;;;52.03;24.33;;;;;;;;;;4963519;28;20851;-63
2022/12/17 23:04:14;;;;;;;47.63;20.90;;;;;;;;;;4939866;28;20224;-63
2022/12/17 23:06:46;;;;;;;41.60;20.43;;;;;;;;;;4961163;28;20211;-62
2022/12/17 23:09:14;;;;;;;41.10;21.37;;;;;;;;;;4943688;28;20219;-63
2022/12/17 23:11:42;;;;;;;45.70;22.83;;;;;;;;;;4953526;28;20321;-61
2022/12/17 23:14:10;;;;;;;44.43;19.83;;;;;;;;;;4956260;28;20765;-61
2022/12/17 23:16:38;;;;;;;48.53;22.30;;;;;;;;;;4956834;28;20218;-63
2022/12/17 23:19:06;;;;;;;52.97;23.53;;;;;;;;;;4953793;28;20315;-60
2022/12/17 23:21:34;;;;;;;46.33;23.40;;;;;;;;;;4951790;28;20323;-63
2022/12/17 23:24:01;;;;;;;78.40;35.60;;;;;;;;;;4958580;28;20295;-63
2022/12/17 23:26:31;;;;;;;71.77;34.17;;;;;;;;;;4962352;28;20718;-62
2022/12/17 23:29:00;;;;;;;53.20;24.77;;;;;;;;;;4946072;28;20767;-61
2022/12/17 23:31:34;;;;;;;49.97;23.63;;;;;;;;;;4925430;28;20347;-61
2022/12/17 23:34:02;;;;;;;51.03;24.00;;;;;;;;;;4951385;28;20736;-63
2022/12/17 23:36:29;;;;;;;50.50;24.17;;;;;;;;;;4943126;28;20259;-62
2022/12/17 23:38:57;;;;;;;51.27;23.97;;;;;;;;;;4933840;28;20220;-62
2022/12/17 23:41:26;;;;;;;50.33;22.87;;;;;;;;;;4956805;28;20220;-61
2022/12/17 23:43:55;;;;;;;44.67;21.53;;;;;;;;;;4951487;28;20295;-61
2022/12/17 23:46:24;;;;;;;48.90;21.63;;;;;;;;;;4944203;28;20312;-62
2022/12/17 23:48:54;;;;;;;45.47;22.00;;;;;;;;;;4954707;28;20244;-61
2022/12/17 23:51:22;;;;;;;46.87;21.37;;;;;;;;;;4949899;28;20786;-62
2022/12/17 23:53:50;;;;;;;47.13;22.33;;;;;;;;;;4940730;28;20227;-61
2022/12/17 23:56:22;;;;;;;46.40;20.87;;;;;;;;;;4960098;28;20258;-61
2022/12/17 23:59:00;;;;;;;46.70;20.70;;;;;;;;;;4942554;28;20232;-61
